Time;durP1;ratioP1;P1;durP2;ratioP2;P2;SDS_P1;SDS_P2;PMS_P1;PMS_P2;Temp;Humidity;BMP_temperature;BMP_pressure;BME280_temperature;BME280_humidity;BME280_pressure;Samples;Min_cycle;Max_cycle;Signal;HPM_P1;HPM_P2
2022/09/20 00:00:23;;;;;;;4.55;1.90;;;10.00;99.90;;;;;;2586032;54;20089;31
2022/09/20 00:02:57;;;;;;;6.38;2.47;;;9.90;99.90;;;;;;2586100;54;20046;31
2022/09/20 00:05:29;;;;;;;3.85;1.70;;;9.90;99.90;;;;;;2585867;54;20945;31
2022/09/20 00:08:01;;;;;;;3.13;1.98;;;9.90;99.90;;;;;;2586114;54;20033;31
2022/09/20 00:10:35;;;;;;;6.03;1.70;;;9.90;99.90;;;;;;2585776;54;20975;31
2022/09/20 00:13:06;;;;;;;2.40;1.40;;;9.90;99.90;;;;;;2585969;54;20097;31
2022/09/20 00:15:44;;;;;;;4.57;1.50;;;9.90;99.90;;;;;;2586181;54;20064;31
2022/09/20 00:18:16;;;;;;;2.55;1.25;;;9.90;99.90;;;;;;2585990;54;20085;31
2022/09/20 00:20:47;;;;;;;4.80;1.43;;;9.90;99.90;;;;;;2595093;46;20121;31
2022/09/20 00:23:21;;;;;;;2.40;1.70;;;9.80;99.90;;;;;;2604264;46;20965;31
2022/09/20 00:25:58;;;;;;;4.25;1.30;;;9.80;99.90;;;;;;2586215;54;20023;31
2022/09/20 00:28:30;;;;;;;2.60;1.40;;;9.80;99.90;;;;;;2585447;54;20030;31
2022/09/20 00:31:04;;;;;;;2.63;1.45;;;9.80;99.90;;;;;;2586847;46;20888;31
2022/09/20 00:36:20;;;;;;;2.70;0.90;;;9.80;99.90;;;;;;2604489;46;20867;31
2022/09/20 00:38:57;;;;;;;2.20;1.10;;;9.90;99.90;;;;;;2586033;54;20109;31
2022/09/20 00:41:29;;;;;;;3.10;1.00;;;9.90;99.90;;;;;;2585899;54;20034;31
2022/09/20 00:44:04;;;;;;;4.25;1.30;;;9.90;99.90;;;;;;2604072;46;20026;31
2022/09/20 00:46:40;;;;;;;2.75;1.25;;;9.90;99.90;;;;;;2585915;54;20367;31
2022/09/20 00:49:13;;;;;;;;;;;9.90;99.90;;;;;;2604694;46;20093;31
2022/09/20 00:51:46;;;;;;;11.30;1.50;;;9.90;99.90;;;;;;2586023;54;20655;31
2022/09/20 00:54:17;;;;;;;3.45;1.33;;;9.90;99.90;;;;;;2586016;54;21196;31
2022/09/20 00:56:50;;;;;;;2.20;1.20;;;9.90;99.90;;;;;;2585851;54;20049;31
2022/09/20 00:59:24;;;;;;;7.35;1.40;;;9.90;99.90;;;;;;2585761;54;20042;31
2022/09/20 01:01:59;;;;;;;5.57;1.10;;;9.90;99.90;;;;;;2593394;46;20085;31
2022/09/20 01:04:30;;;;;;;4.20;1.37;;;10.20;99.90;;;;;;2585813;54;21252;31
2022/09/20 01:07:05;;;;;;;2.77;1.10;;;9.90;99.90;;;;;;2586286;46;20763;31
2022/09/20 01:09:36;;;;;;;3.72;1.30;;;9.90;99.90;;;;;;2585845;54;20247;31
2022/09/20 01:12:11;;;;;;;3.85;1.30;;;9.90;99.90;;;;;;2585748;54;20022;31
2022/09/20 01:14:44;;;;;;;2.25;1.00;;;9.80;99.90;;;;;;2591713;31;22378;31
2022/09/20 01:17:18;;;;;;;7.60;1.30;;;9.90;99.90;;;;;;2585926;54;20810;31
2022/09/20 01:19:51;;;;;;;2.07;1.13;;;9.80;99.90;;;;;;2585684;54;20848;31
2022/09/20 01:22:24;;;;;;;1.65;1.15;;;9.90;99.90;;;;;;2604733;46;20023;31
2022/09/20 01:24:59;;;;;;;2.85;1.10;;;9.80;99.90;;;;;;2585068;54;20796;31
2022/09/20 01:27:44;;;;;;;1.20;0.70;;;9.80;99.90;;;;;;2585866;54;20670;31
2022/09/20 01:30:19;;;;;;;3.67;1.42;;;9.80;99.90;;;;;;2604008;46;21216;31
2022/09/20 01:32:59;;;;;;;4.80;1.00;;;9.80;99.90;;;;;;2585763;54;20038;31
2022/09/20 01:35:30;;;;;;;2.65;1.10;;;9.70;99.90;;;;;;2585966;54;20097;31
2022/09/20 01:38:12;;;;;;;4.95;1.10;;;9.70;99.90;;;;;;2586157;47;20077;31
2022/09/20 01:40:47;;;;;;;5.32;1.55;;;9.70;99.90;;;;;;2586097;54;20094;31
2022/09/20 01:43:26;;;;;;;2.47;1.03;;;9.80;99.90;;;;;;2586870;54;20045;31
2022/09/20 01:46:00;;;;;;;4.75;1.05;;;9.80;99.90;;;;;;2586361;54;20022;31
2022/09/20 01:48:35;;;;;;;3.00;1.35;;;9.80;99.90;;;;;;2586777;54;20952;31
2022/09/20 01:51:30;;;;;;;4.30;1.10;;;9.80;99.90;;;;;;2586613;54;20029;31
2022/09/20 01:54:27;;;;;;;2.17;1.10;;;9.80;99.90;;;;;;2586308;54;20109;31
2022/09/20 01:57:18;;;;;;;;;;;9.80;99.90;;;;;;2586355;54;20108;31
2022/09/20 02:00:08;;;;;;;1.83;0.63;;;9.80;99.90;;;;;;2605011;46;20065;31
2022/09/20 02:03:19;;;;;;;3.30;1.17;;;9.80;99.90;;;;;;2586630;54;20246;31
2022/09/20 02:06:12;;;;;;;3.45;1.20;;;9.90;99.90;;;;;;2605384;46;20258;31
2022/09/20 02:09:03;;;;;;;2.45;1.10;;;9.90;99.90;;;;;;2586186;54;20950;31
2022/09/20 02:11:42;;;;;;;3.40;0.93;;;9.90;99.90;;;;;;2586372;54;20023;31
2022/09/20 02:14:25;;;;;;;3.90;1.25;;;9.80;99.90;;;;;;2586523;54;20833;31
2022/09/20 02:17:04;;;;;;;3.63;1.92;;;9.90;99.90;;;;;;2746175;31;20029;31
2022/09/20 02:19:51;;;;;;;3.87;1.40;;;9.90;99.90;;;;;;2586535;54;20030;31
2022/09/20 02:22:32;;;;;;;4.22;1.05;;;9.90;99.90;;;;;;2586346;54;20047;31
2022/09/20 02:25:09;;;;;;;3.70;1.40;;;9.90;99.90;;;;;;2586332;54;20132;31
2022/09/20 02:27:47;;;;;;;2.55;1.05;;;9.90;99.90;;;;;;2605101;46;20045;31
2022/09/20 02:30:25;;;;;;;2.88;1.17;;;9.90;99.90;;;;;;2586389;54;20074;31
2022/09/20 02:33:14;;;;;;;3.75;1.65;;;10.00;99.90;;;;;;2586425;54;20889;31
2022/09/20 02:35:53;;;;;;;4.75;1.20;;;9.90;99.90;;;;;;2586276;54;20057;31
2022/09/20 02:38:39;;;;;;;5.25;1.40;;;9.90;99.90;;;;;;2586146;54;20753;31
2022/09/20 02:41:36;;;;;;;2.28;1.35;;;9.90;99.90;;;;;;2586437;54;20768;31
2022/09/20 02:44:10;;;;;;;3.67;1.33;;;9.90;99.90;;;;;;2586562;54;20871;31
2022/09/20 02:46:44;;;;;;;4.45;1.30;;;9.90;99.90;;;;;;2586474;54;20759;31
2022/09/20 02:49:21;;;;;;;1.92;1.13;;;9.80;99.90;;;;;;2586379;54;19934;31
2022/09/20 02:51:57;;;;;;;3.60;1.50;;;9.80;99.90;;;;;;2586225;54;20050;31
2022/09/20 02:54:30;;;;;;;3.58;1.58;;;9.80;99.90;;;;;;2586506;54;20027;31
2022/09/20 02:57:04;;;;;;;3.30;1.35;;;9.80;99.90;;;;;;2604639;46;20053;31
2022/09/20 02:59:40;;;;;;;2.77;1.30;;;9.80;99.90;;;;;;2595611;46;20033;31
2022/09/20 03:02:17;;;;;;;6.05;1.73;;;9.80;99.90;;;;;;2586359;54;20860;31
2022/09/20 03:04:57;;;;;;;3.40;1.40;;;9.80;99.90;;;;;;2586423;54;20770;31
2022/09/20 03:07:34;;;;;;;7.20;2.45;;;9.90;99.90;;;;;;2586827;46;21089;31
2022/09/20 03:10:11;;;;;;;2.28;1.30;;;9.80;99.90;;;;;;2586067;54;20910;31
2022/09/20 03:12:49;;;;;;;5.57;1.58;;;9.90;99.90;;;;;;2586354;54;20023;31
2022/09/20 03:15:24;;;;;;;4.97;2.15;;;9.70;99.90;;;;;;2586315;54;20026;31
2022/09/20 03:18:04;;;;;;;4.88;1.60;;;9.70;99.90;;;;;;2605240;46;20022;31
2022/09/20 03:20:43;;;;;;;3.55;1.50;;;9.60;99.90;;;;;;2586021;54;20023;31
2022/09/20 03:23:21;;;;;;;8.40;2.72;;;9.60;99.90;;;;;;2586049;54;20903;31
2022/09/20 03:25:55;;;;;;;6.35;1.65;;;9.50;99.90;;;;;;2586545;54;20029;31
2022/09/20 03:28:38;;;;;;;4.25;1.70;;;9.80;99.90;;;;;;2586264;54;20127;31
2022/09/20 03:31:22;;;;;;;3.92;1.40;;;9.50;99.90;;;;;;2586202;54;20887;31
2022/09/20 03:33:58;;;;;;;3.25;1.38;;;9.50;99.90;;;;;;2586186;54;20852;31
2022/09/20 03:36:42;;;;;;;4.50;2.20;;;9.50;99.90;;;;;;2585990;54;19990;31
2022/09/20 03:39:39;;;;;;;4.22;1.52;;;9.50;99.90;;;;;;2586036;54;20026;31
2022/09/20 03:42:17;;;;;;;4.07;1.80;;;9.50;99.90;;;;;;2585991;54;20847;31
2022/09/20 03:45:13;;;;;;;4.38;1.98;;;9.60;99.90;;;;;;2586179;54;20034;31
2022/09/20 03:48:13;;;;;;;3.80;1.70;;;9.50;99.90;;;;;;2593235;39;22356;31
2022/09/20 03:51:01;;;;;;;2.47;1.30;;;9.60;99.90;;;;;;2585651;54;20030;31
2022/09/20 03:53:45;;;;;;;5.32;1.50;;;9.70;99.90;;;;;;2586652;54;20022;31
2022/09/20 03:56:48;;;;;;;11.35;2.13;;;9.50;99.90;;;;;;2586868;46;20022;31
2022/09/20 03:59:28;;;;;;;2.97;1.35;;;9.50;99.90;;;;;;2585817;54;20035;31
2022/09/20 04:02:21;;;;;;;1.83;1.10;;;9.50;99.90;;;;;;2590722;46;20873;31
2022/09/20 04:04:54;;;;;;;3.47;1.48;;;9.50;99.90;;;;;;2586010;54;20041;31
2022/09/20 04:07:28;;;;;;;4.85;1.35;;;9.50;99.90;;;;;;2586107;54;20770;31
2022/09/20 04:10:34;;;;;;;2.40;1.00;;;9.50;99.90;;;;;;2585767;54;19935;31
2022/09/20 04:13:21;;;;;;;6.60;1.45;;;9.60;99.90;;;;;;2585647;54;20030;31
2022/09/20 04:16:02;;;;;;;5.05;1.20;;;9.60;99.90;;;;;;2586179;54;20059;31
2022/09/20 04:18:37;;;;;;;4.10;1.00;;;9.60;99.90;;;;;;2605030;46;20053;31
2022/09/20 04:21:12;;;;;;;5.37;1.17;;;9.60;99.90;;;;;;2585781;54;20246;31
2022/09/20 04:23:48;;;;;;;5.28;1.05;;;9.60;99.90;;;;;;2585965;54;20237;31
2022/09/20 04:26:26;;;;;;;3.55;1.20;;;9.70;99.90;;;;;;2586028;54;20169;31
2022/09/20 04:29:00;;;;;;;4.63;1.45;;;9.60;99.90;;;;;;2585965;54;20093;31
2022/09/20 04:31:38;;;;;;;5.15;1.30;;;9.70;99.90;;;;;;2590927;46;20034;31
2022/09/20 04:34:18;;;;;;;6.50;1.10;;;9.70;99.90;;;;;;2585921;54;20105;31
2022/09/20 04:36:56;;;;;;;2.20;0.90;;;9.90;99.90;;;;;;2585804;54;20022;31
2022/09/20 04:39:39;;;;;;;3.85;1.25;;;9.80;99.90;;;;;;2586490;46;20147;31
2022/09/20 04:42:53;;;;;;;3.15;1.40;;;9.80;99.90;;;;;;2586035;54;20863;31
2022/09/20 04:45:43;;;;;;;6.20;1.83;;;9.80;99.90;;;;;;2585859;54;20935;31
2022/09/20 04:48:31;;;;;;;4.25;2.30;;;9.80;99.90;;;;;;2585406;54;20018;31
2022/09/20 04:51:37;;;;;;;5.72;2.67;;;9.80;99.90;;;;;;2585620;54;20846;31
2022/09/20 04:54:50;;;;;;;6.35;2.80;;;9.80;99.90;;;;;;2585911;54;20818;31
2022/09/20 04:57:44;;;;;;;4.45;3.15;;;9.80;99.90;;;;;;2585657;54;20018;31
2022/09/20 05:00:20;;;;;;;4.30;3.33;;;9.80;99.90;;;;;;2585707;54;20819;31
2022/09/20 05:03:04;;;;;;;;;;;9.80;99.90;;;;;;2604526;46;20030;31
2022/09/20 05:05:38;;;;;;;6.47;3.90;;;9.80;99.90;;;;;;2603040;46;20827;31
2022/09/20 05:08:34;;;;;;;8.03;4.33;;;9.80;99.90;;;;;;2586047;54;20034;31
2022/09/20 05:11:49;;;;;;;9.30;4.30;;;9.80;99.90;;;;;;2585952;54;20030;31
2022/09/20 05:17:02;;;;;;;6.05;4.55;;;9.80;99.90;;;;;;2585713;54;20050;31
2022/09/20 05:19:34;;;;;;;5.90;4.60;;;9.80;99.90;;;;;;2585682;54;20837;31
2022/09/20 05:22:42;;;;;;;7.40;5.57;;;9.70;99.90;;;;;;2585805;54;20022;31
2022/09/20 05:25:26;;;;;;;6.95;4.85;;;9.70;99.90;;;;;;2585747;54;20030;31
2022/09/20 05:28:00;;;;;;;6.75;5.30;;;9.80;99.90;;;;;;2585844;54;20871;31
2022/09/20 05:30:36;;;;;;;8.35;5.60;;;9.80;99.90;;;;;;2585965;54;20751;31
2022/09/20 05:33:19;;;;;;;6.95;5.22;;;9.80;99.90;;;;;;2585689;54;20645;31
2022/09/20 05:35:53;;;;;;;7.72;5.20;;;9.80;99.90;;;;;;2585669;54;20100;31
2022/09/20 05:38:28;;;;;;;10.83;5.60;;;9.70;99.90;;;;;;2585770;54;20762;31
2022/09/20 05:41:30;;;;;;;8.63;5.53;;;9.80;99.90;;;;;;2585208;54;20292;31
2022/09/20 05:44:10;;;;;;;7.85;5.90;;;9.80;99.90;;;;;;2585451;54;20911;31
2022/09/20 05:46:47;;;;;;;12.15;5.65;;;9.80;99.90;;;;;;2585506;54;20112;31
2022/09/20 05:49:28;;;;;;;7.95;5.50;;;9.90;99.90;;;;;;2585516;54;20060;31
2022/09/20 05:52:11;;;;;;;14.80;5.38;;;9.90;99.90;;;;;;2585486;54;20169;31
2022/09/20 05:54:57;;;;;;;7.03;4.97;;;10.00;99.90;;;;;;2585410;54;20030;31
2022/09/20 05:57:36;;;;;;;9.93;5.80;;;9.90;99.90;;;;;;2585456;54;20945;31
2022/09/20 06:00:10;;;;;;;9.65;5.68;;;10.00;99.90;;;;;;2585754;54;20026;31
2022/09/20 06:02:50;;;;;;;7.70;5.70;;;10.00;99.90;;;;;;2585592;54;20758;31
2022/09/20 06:05:29;;;;;;;7.75;5.55;;;10.30;99.90;;;;;;2585583;54;20749;31
2022/09/20 06:08:27;;;;;;;8.40;6.10;;;10.00;99.90;;;;;;2590870;47;20859;31
2022/09/20 06:11:10;;;;;;;10.75;6.30;;;10.00;99.90;;;;;;2585395;54;20051;31
2022/09/20 06:13:47;;;;;;;10.50;6.35;;;10.10;99.90;;;;;;2585495;54;20096;31
2022/09/20 06:16:19;;;;;;;7.70;5.90;;;10.00;99.90;;;;;;2585554;54;20061;31
2022/09/20 06:18:55;;;;;;;9.82;5.57;;;10.20;99.90;;;;;;2585854;54;20044;31
2022/09/20 06:21:33;;;;;;;11.75;6.30;;;10.10;99.90;;;;;;2585475;54;20839;31
2022/09/20 06:24:06;;;;;;;7.33;5.93;;;10.20;99.90;;;;;;2585671;54;20743;31
2022/09/20 06:26:40;;;;;;;7.10;5.60;;;10.20;99.90;;;;;;2585817;54;20328;31
2022/09/20 06:29:13;;;;;;;9.60;5.45;;;10.20;99.90;;;;;;2586225;54;20023;31
2022/09/20 06:31:45;;;;;;;7.75;5.50;;;10.30;99.90;;;;;;2586208;54;20022;31
2022/09/20 06:34:19;;;;;;;7.90;5.70;;;10.30;99.90;;;;;;2608241;39;20351;31
2022/09/20 06:42:34;;;;;;;7.95;5.45;;;10.60;99.90;;;;;;2590286;54;21003;31
2022/09/20 06:45:11;;;;;;;9.13;5.47;;;10.50;99.90;;;;;;2588642;54;20054;-79
2022/09/20 06:47:44;;;;;;;6.03;4.75;;;10.50;99.90;;;;;;2586727;54;21005;31
2022/09/20 06:50:18;;;;;;;8.75;4.78;;;10.50;99.90;;;;;;2605058;46;20031;31
2022/09/20 06:52:54;;;;;;;7.60;5.03;;;10.60;99.90;;;;;;2586730;54;20094;31
2022/09/20 06:55:30;;;;;;;7.03;4.68;;;10.60;99.90;;;;;;2588933;54;20810;31
2022/09/20 06:58:05;;;;;;;5.90;4.90;;;10.40;99.90;;;;;;2587743;46;20109;31
2022/09/20 07:00:38;;;;;;;8.70;6.70;;;10.70;99.90;;;;;;2587491;46;21411;31
2022/09/20 07:03:13;;;;;;;8.48;4.93;;;10.70;99.90;;;;;;2590308;54;20944;31
2022/09/20 07:05:48;;;;;;;7.50;4.57;;;10.70;99.90;;;;;;2590254;54;20042;31
2022/09/20 07:08:22;;;;;;;8.00;5.15;;;10.80;99.90;;;;;;2586366;54;20030;31
2022/09/20 07:10:55;;;;;;;6.60;4.87;;;10.90;99.90;;;;;;2604973;46;20695;31
2022/09/20 07:13:31;;;;;;;9.45;4.90;;;10.90;99.90;;;;;;2593980;54;20093;31
2022/09/20 07:16:04;;;;;;;7.63;6.05;;;10.90;99.90;;;;;;2586720;54;20162;31
2022/09/20 07:18:37;;;;;;;9.95;5.90;;;10.90;99.90;;;;;;2585944;54;20902;31
2022/09/20 07:21:08;;;;;;;11.50;5.05;;;10.90;99.90;;;;;;2586354;54;20046;31
2022/09/20 07:23:44;;;;;;;7.25;5.05;;;11.00;99.90;;;;;;2609365;46;20036;31
2022/09/20 07:26:20;;;;;;;7.53;4.85;;;11.10;99.90;;;;;;2608394;46;20895;-80
2022/09/20 07:28:54;;;;;;;6.03;4.65;;;11.10;99.90;;;;;;2591236;54;21050;31
2022/09/20 07:31:30;;;;;;;7.80;4.75;;;11.40;99.90;;;;;;2589258;54;20030;31
2022/09/20 07:34:03;;;;;;;;;;;11.20;99.90;;;;;;2586307;54;20934;31
2022/09/20 07:36:36;;;;;;;7.55;4.50;;;11.30;99.90;;;;;;2586343;54;20779;31
2022/09/20 07:39:11;;;;;;;6.97;4.18;;;11.40;99.90;;;;;;2589180;54;21121;31
2022/09/20 07:41:49;;;;;;;6.72;4.32;;;11.80;99.90;;;;;;2586379;54;20026;31
2022/09/20 07:44:26;;;;;;;5.70;4.23;;;11.60;99.90;;;;;;2587984;54;20022;-78
2022/09/20 07:47:01;;;;;;;7.47;4.38;;;11.90;99.90;;;;;;2586932;54;20851;31
2022/09/20 07:49:38;;;;;;;6.25;4.18;;;11.90;99.90;;;;;;2590687;54;20052;-77
2022/09/20 07:52:13;;;;;;;5.22;4.18;;;12.10;99.90;;;;;;2590430;54;20069;31
2022/09/20 07:54:53;;;;;;;7.82;4.40;;;11.90;99.90;;;;;;2590561;46;20033;-75
2022/09/20 07:57:26;;;;;;;8.35;4.18;;;12.20;99.90;;;;;;2590862;54;21732;31
2022/09/20 08:00:01;;;;;;;4.75;4.00;;;11.90;99.90;;;;;;2596696;39;20398;31
2022/09/20 08:02:45;;;;;;;7.55;4.70;;;12.00;99.90;;;;;;2594839;54;22222;31
2022/09/20 08:05:19;;;;;;;8.83;3.80;;;12.00;99.90;;;;;;2603305;54;20078;31
2022/09/20 08:07:58;;;;;;;4.10;3.60;;;12.10;99.90;;;;;;2591637;46;20313;-76
2022/09/20 08:10:32;;;;;;;5.93;4.40;;;12.10;99.90;;;;;;2590537;54;21124;31
2022/09/20 08:13:10;;;;;;;7.57;4.00;;;12.10;99.90;;;;;;2590338;54;21154;31
2022/09/20 08:16:05;;;;;;;6.75;3.42;;;12.00;99.90;;;;;;2591699;54;20105;31
2022/09/20 08:18:40;;;;;;;6.50;3.80;;;12.20;99.90;;;;;;2590420;54;21031;31
2022/09/20 08:21:12;;;;;;;4.90;3.20;;;12.60;99.90;;;;;;2592567;54;21641;-78
2022/09/20 08:23:46;;;;;;;5.43;2.72;;;12.70;99.90;;;;;;2590266;54;20946;31
2022/09/20 08:26:23;;;;;;;4.53;2.33;;;13.00;99.90;;;;;;2589654;54;20130;31
2022/09/20 08:29:00;;;;;;;4.88;2.30;;;13.20;99.90;;;;;;2590273;54;20027;31
2022/09/20 08:31:35;;;;;;;4.37;2.50;;;13.60;99.90;;;;;;2590349;54;20029;31
2022/09/20 08:34:09;;;;;;;3.80;2.50;;;14.20;99.90;;;;;;2621147;46;20038;31
2022/09/20 08:36:45;;;;;;;6.63;2.78;;;14.50;99.90;;;;;;2600589;54;20030;31
2022/09/20 08:39:21;;;;;;;3.42;2.50;;;15.10;99.90;;;;;;2598888;54;20023;31
2022/09/20 08:42:21;;;;;;;7.47;2.60;;;15.40;99.90;;;;;;2588162;54;20023;-74
2022/09/20 08:44:57;;;;;;;4.53;2.40;;;15.60;99.90;;;;;;2593469;54;20026;31
2022/09/20 08:47:31;;;;;;;5.07;2.60;;;15.50;99.90;;;;;;2586256;54;20937;31
2022/09/20 08:50:06;;;;;;;4.50;2.40;;;15.40;99.90;;;;;;2588134;54;20026;31
2022/09/20 08:52:43;;;;;;;5.27;2.33;;;15.20;99.90;;;;;;2586069;54;20030;31
2022/09/20 08:55:19;;;;;;;6.15;2.70;;;15.00;99.90;;;;;;2586576;46;20056;31
2022/09/20 08:57:52;;;;;;;7.50;3.00;;;14.80;99.90;;;;;;2586215;54;20057;31
2022/09/20 09:00:28;;;;;;;4.82;2.25;;;14.60;99.90;;;;;;2585852;54;20789;31
2022/09/20 09:03:02;;;;;;;6.57;2.72;;;14.40;99.90;;;;;;2585804;54;20104;31
2022/09/20 09:05:35;;;;;;;3.60;2.72;;;14.70;99.90;;;;;;2605209;46;21198;31
2022/09/20 09:08:09;;;;;;;5.65;2.85;;;14.70;99.90;;;;;;2588866;54;20027;31
2022/09/20 09:10:41;;;;;;;3.00;2.70;;;14.70;99.90;;;;;;2586863;54;20165;31
2022/09/20 09:13:27;;;;;;;4.85;2.20;;;14.70;99.90;;;;;;2598012;46;20288;-75
2022/09/20 09:16:08;;;;;;;4.00;2.40;;;14.60;99.90;;;;;;2590118;54;21266;31
2022/09/20 09:18:41;;;;;;;3.75;2.70;;;14.70;99.90;;;;;;2586806;46;20323;31
2022/09/20 09:21:19;;;;;;;4.10;3.05;;;14.60;99.90;;;;;;2591224;54;20782;-82
2022/09/20 09:23:59;;;;;;;5.35;3.08;;;14.50;99.90;;;;;;2603638;54;20023;31
2022/09/20 09:26:37;;;;;;;4.93;3.20;;;14.50;99.90;;;;;;2604401;46;20034;31
2022/09/20 09:29:18;;;;;;;4.80;2.85;;;14.30;99.90;;;;;;2604339;54;20014;31
2022/09/20 09:31:53;;;;;;;5.05;2.72;;;14.20;99.90;;;;;;2586314;54;20033;31
2022/09/20 09:34:26;;;;;;;9.45;3.30;;;14.10;99.90;;;;;;2585777;54;20097;31
2022/09/20 09:36:59;;;;;;;3.60;2.90;;;14.20;99.90;;;;;;2586186;54;20263;31
2022/09/20 09:39:31;;;;;;;4.80;3.00;;;14.30;99.90;;;;;;2585762;54;20738;31
2022/09/20 09:42:05;;;;;;;3.70;3.17;;;14.30;99.90;;;;;;2585657;54;21090;31
2022/09/20 09:44:40;;;;;;;6.75;3.22;;;14.30;99.90;;;;;;2588023;54;20782;-82
2022/09/20 09:47:30;;;;;;;4.43;2.20;;;14.30;99.90;;;;;;2590229;54;20019;31
2022/09/20 09:50:06;;;;;;;5.40;2.75;;;14.10;99.90;;;;;;2585811;54;20857;31
2022/09/20 09:52:42;;;;;;;6.65;3.38;;;14.00;99.90;;;;;;2586021;54;21622;31
2022/09/20 09:55:16;;;;;;;5.13;2.97;;;14.00;99.90;;;;;;2586084;54;21527;31
2022/09/20 09:57:53;;;;;;;5.35;3.60;;;14.10;99.90;;;;;;2584894;54;20027;31
2022/09/20 10:00:26;;;;;;;6.70;3.50;;;14.30;99.90;;;;;;2585837;54;20758;31
2022/09/20 10:03:22;;;;;;;4.72;2.65;;;14.30;99.90;;;;;;2600620;54;20987;-81
2022/09/20 10:06:03;;;;;;;12.25;3.20;;;14.20;99.90;;;;;;2594461;46;20951;31
2022/09/20 10:08:42;;;;;;;10.18;3.85;;;14.20;99.90;;;;;;2590626;54;20309;31
2022/09/20 10:11:25;;;;;;;3.40;3.10;;;14.10;99.90;;;;;;2614497;39;21414;31
2022/09/20 10:14:04;;;;;;;9.60;3.85;;;14.00;99.90;;;;;;2591007;54;20026;31
2022/09/20 10:16:43;;;;;;;6.82;3.00;;;13.90;99.90;;;;;;2586623;54;20089;31
2022/09/20 10:19:22;;;;;;;4.45;3.20;;;14.10;99.90;;;;;;2591175;46;20046;31
2022/09/20 10:21:56;;;;;;;6.32;3.00;;;14.00;99.90;;;;;;2587834;54;20033;-80
2022/09/20 10:24:33;;;;;;;8.55;3.53;;;14.10;99.90;;;;;;2592288;54;20029;31
2022/09/20 10:27:15;;;;;;;3.97;3.42;;;14.10;99.90;;;;;;2589022;54;20133;31
2022/09/20 10:29:59;;;;;;;7.07;3.17;;;14.20;99.90;;;;;;2586705;54;20031;31
2022/09/20 10:32:50;;;;;;;7.33;3.53;;;14.20;99.90;;;;;;2586557;54;20090;31
2022/09/20 10:35:32;;;;;;;5.68;3.47;;;14.20;99.90;;;;;;2590936;54;20258;31
2022/09/20 10:38:13;;;;;;;6.95;3.15;;;14.30;99.90;;;;;;2597531;54;20069;-79
2022/09/20 10:43:49;;;;;;;5.03;2.00;;;14.70;99.90;;;;;;2612178;54;20783;-72
2022/09/20 10:46:28;;;;;;;4.57;2.50;;;14.90;99.90;;;;;;2613380;54;20022;-78
2022/09/20 10:49:12;;;;;;;8.93;5.07;;;15.10;99.90;;;;;;2607556;54;20019;-79
2022/09/20 10:51:49;;;;;;;6.30;2.47;;;15.10;99.90;;;;;;2616522;54;20051;-78
2022/09/20 10:54:28;;;;;;;4.30;2.03;;;15.60;99.90;;;;;;2629993;54;20613;-77
2022/09/20 10:57:09;;;;;;;5.13;1.75;;;15.90;99.90;;;;;;2630469;54;20082;-77
2022/09/20 10:59:45;;;;;;;7.47;2.20;;;16.10;99.90;;;;;;2630536;54;20038;-77
2022/09/20 11:02:27;;;;;;;3.47;1.20;;;16.40;99.90;;;;;;2631681;46;20014;-78
2022/09/20 11:05:28;;;;;;;1.98;1.10;;;16.50;99.90;;;;;;2621252;46;20018;31
2022/09/20 11:08:09;;;;;;;6.40;1.45;;;16.70;99.90;;;;;;2606275;46;20023;31
2022/09/20 11:10:46;;;;;;;3.80;1.40;;;16.70;99.90;;;;;;2599567;54;20019;-74
2022/09/20 11:13:25;;;;;;;5.35;1.55;;;16.80;99.90;;;;;;2602352;54;20051;-79
2022/09/20 11:16:02;;;;;;;3.83;2.25;;;16.50;99.90;;;;;;2619645;54;20023;-76
2022/09/20 11:18:37;;;;;;;4.32;1.70;;;16.30;99.90;;;;;;2620554;46;20949;31
2022/09/20 11:21:16;;;;;;;5.07;1.30;;;16.20;99.90;;;;;;2608098;54;20441;31
2022/09/20 11:23:54;;;;;;;1.50;0.90;;;16.00;99.90;;;;;;2605082;54;20046;31
2022/09/20 11:26:30;;;;;;;3.65;0.90;;;15.90;99.90;;;;;;2605385;54;20022;31
2022/09/20 11:29:04;;;;;;;;;;;15.90;99.90;;;;;;2606282;54;20022;31
2022/09/20 11:31:40;;;;;;;1.45;0.47;;;16.20;99.90;;;;;;2606156;54;19934;31
2022/09/20 11:34:18;;;;;;;3.97;0.80;;;16.40;99.90;;;;;;2595493;54;21033;-76
2022/09/20 11:36:57;;;;;;;1.98;0.77;;;16.30;99.90;;;;;;2593763;54;20018;-76
2022/09/20 11:39:29;;;;;;;1.35;0.52;;;16.20;99.90;;;;;;2610289;54;20025;31
2022/09/20 11:42:04;;;;;;;2.92;0.88;;;16.00;99.90;;;;;;2611121;54;20097;-76
2022/09/20 11:44:42;;;;;;;2.08;0.50;;;15.80;99.90;;;;;;2604102;54;20023;31
2022/09/20 11:47:17;;;;;;;1.15;0.60;;;15.80;99.90;;;;;;2612500;54;20894;31
2022/09/20 11:50:36;;;;;;;1.00;0.70;;;15.70;99.90;;;;;;2616494;54;20945;31
2022/09/20 11:53:16;;;;;;;2.28;0.82;;;15.40;99.90;;;;;;2616383;46;20862;31
2022/09/20 11:55:57;;;;;;;1.33;0.75;;;15.20;99.90;;;;;;2590485;54;20019;-79
2022/09/20 11:58:30;;;;;;;3.00;1.05;;;15.00;99.90;;;;;;2590244;54;20026;31
2022/09/20 12:01:05;;;;;;;2.70;0.90;;;14.90;99.90;;;;;;2590213;54;20366;31
2022/09/20 12:03:42;;;;;;;2.03;0.90;;;14.80;99.90;;;;;;2596713;54;20030;-76
2022/09/20 12:06:26;;;;;;;3.25;1.25;;;14.70;99.90;;;;;;2590965;54;20980;31
2022/09/20 12:08:59;;;;;;;4.03;1.80;;;14.70;99.90;;;;;;2601497;54;20018;31
2022/09/20 12:11:34;;;;;;;2.85;1.35;;;14.70;99.90;;;;;;2586111;54;20031;31
2022/09/20 12:14:08;;;;;;;6.65;1.58;;;14.70;99.90;;;;;;2586268;54;20023;31
2022/09/20 12:16:44;;;;;;;5.15;1.60;;;14.90;99.90;;;;;;2586201;54;20050;31
2022/09/20 12:19:31;;;;;;;5.10;1.23;;;14.90;99.90;;;;;;2603535;54;20985;31
2022/09/20 12:22:18;;;;;;;2.57;1.40;;;15.00;99.90;;;;;;2589886;54;20284;31
2022/09/20 12:24:50;;;;;;;4.18;1.67;;;14.80;99.90;;;;;;2589647;54;19943;31
2022/09/20 12:27:25;;;;;;;9.80;2.50;;;14.90;99.90;;;;;;2586006;54;20073;31
2022/09/20 12:30:19;;;;;;;3.90;1.92;;;14.90;99.90;;;;;;2586320;54;20069;31
2022/09/20 12:33:01;;;;;;;5.45;2.10;;;14.80;99.90;;;;;;2586503;54;20513;-73
2022/09/20 12:36:00;;;;;;;3.05;1.80;;;14.70;99.90;;;;;;2586513;54;21277;31
2022/09/20 12:38:38;;;;;;;3.78;2.00;;;14.60;99.90;;;;;;2586403;54;20903;31
2022/09/20 12:41:15;;;;;;;3.50;2.50;;;14.70;99.90;;;;;;2586478;54;20053;31
2022/09/20 12:44:02;;;;;;;8.82;2.58;;;14.60;99.90;;;;;;2585724;54;21096;31
2022/09/20 12:46:42;;;;;;;8.48;2.38;;;14.70;99.90;;;;;;2585968;54;20027;31
2022/09/20 12:52:52;;;;;;;2.17;1.33;;;14.60;99.90;;;;;;2586093;54;20026;31
2022/09/20 12:55:37;;;;;;;2.55;1.50;;;14.70;99.90;;;;;;2593266;39;22314;31
2022/09/20 12:58:38;;;;;;;3.00;1.80;;;14.70;99.90;;;;;;2591597;54;20081;31
2022/09/20 13:01:30;;;;;;;4.32;1.77;;;14.70;99.90;;;;;;2589477;54;20034;31
2022/09/20 13:04:33;;;;;;;3.13;1.48;;;14.80;99.90;;;;;;2600068;54;20023;31
2022/09/20 13:07:36;;;;;;;2.95;1.10;;;14.90;99.90;;;;;;2590341;54;20048;31
2022/09/20 13:10:27;;;;;;;5.25;1.20;;;15.00;99.90;;;;;;2590512;54;20069;31
2022/09/20 13:13:02;;;;;;;3.53;1.20;;;15.00;99.90;;;;;;2585301;54;20758;31
2022/09/20 13:15:38;;;;;;;2.17;1.20;;;15.20;99.90;;;;;;2588107;54;20262;31
2022/09/20 13:18:14;;;;;;;1.50;0.90;;;14.90;99.90;;;;;;2585978;54;20891;31
2022/09/20 13:20:46;;;;;;;3.90;1.10;;;15.10;99.90;;;;;;2586103;54;20023;31
2022/09/20 13:23:26;;;;;;;5.37;0.90;;;15.00;99.90;;;;;;2585909;54;20080;31
2022/09/20 13:26:03;;;;;;;2.50;0.90;;;15.00;99.90;;;;;;2585582;54;20880;31
2022/09/20 13:28:39;;;;;;;4.70;1.45;;;15.00;99.90;;;;;;2584759;54;21059;31
2022/09/20 13:31:24;;;;;;;;;;;15.00;99.90;;;;;;2586170;54;19954;31
2022/09/20 13:34:00;;;;;;;2.63;1.13;;;15.00;99.90;;;;;;2589426;54;19942;31
2022/09/20 13:36:36;;;;;;;2.73;1.33;;;15.10;99.90;;;;;;2590420;46;20033;31
2022/09/20 13:39:09;;;;;;;2.72;1.40;;;15.10;99.90;;;;;;2585551;54;21219;31
2022/09/20 13:41:49;;;;;;;3.45;1.00;;;15.10;99.90;;;;;;2585962;54;20072;31
2022/09/20 13:44:23;;;;;;;5.10;1.02;;;15.20;99.90;;;;;;2585868;54;20034;31
2022/09/20 13:46:56;;;;;;;6.60;1.20;;;15.20;99.90;;;;;;2585795;54;20035;31
2022/09/20 13:49:33;;;;;;;1.60;1.00;;;15.20;99.90;;;;;;2585845;54;20049;31
2022/09/20 13:52:17;;;;;;;2.53;1.30;;;15.20;99.90;;;;;;2585773;54;20029;31
2022/09/20 13:54:50;;;;;;;2.10;1.00;;;15.20;99.90;;;;;;2585804;54;21074;31
2022/09/20 13:57:28;;;;;;;1.88;0.93;;;15.10;99.90;;;;;;2585499;54;19934;31
2022/09/20 14:00:00;;;;;;;4.20;1.27;;;15.20;99.90;;;;;;2585639;54;20061;31
2022/09/20 14:02:44;;;;;;;5.18;0.88;;;15.20;99.90;;;;;;2586075;54;21176;31
2022/09/20 14:05:18;;;;;;;6.13;1.30;;;15.10;99.90;;;;;;2585763;54;20735;31
2022/09/20 14:07:50;;;;;;;2.05;1.00;;;15.10;99.90;;;;;;2585686;54;21083;31
2022/09/20 14:10:30;;;;;;;1.20;0.90;;;15.10;99.90;;;;;;2604785;47;20029;31
2022/09/20 14:13:07;;;;;;;2.75;0.95;;;15.00;99.90;;;;;;2585740;54;20885;31
2022/09/20 14:15:43;;;;;;;1.00;0.80;;;14.80;99.90;;;;;;2585556;54;19946;31
2022/09/20 14:18:18;;;;;;;1.83;0.93;;;14.90;99.90;;;;;;2585713;54;20894;31
2022/09/20 14:20:52;;;;;;;1.48;0.85;;;14.70;99.90;;;;;;2585549;54;20855;31